| time (UTC) | temp C | wind direction | speed KPH | gust KPH | rain 1hr cm | rain 24hr cm | rain mn cm | humidity % | barometer mb |
| 20260508220502 | 12 | 224 | 16.1 | 27.4 | 0.23 | 0.33 | 0.33 | 97 | 1011.0 |
| 20260508220002 | 12 | 235 | 14.5 | 22.5 | 0.18 | 0.33 | 0.33 | 97 | 1011.2 |
| 20260508215502 | 12 | 237 | 17.7 | 22.5 | 0.10 | 0.30 | 0.30 | 97 | 1011.1 |
| 20260508215002 | 12 | 240 | 14.5 | 20.9 | 0.10 | 0.28 | 0.28 | 98 | 1011.1 |
| 20260508214502 | 12 | 227 | 16.1 | 19.3 | 0.10 | 0.28 | 0.28 | 98 | 1011.2 |
| 20260508214002 | 12 | 231 | 17.7 | 27.4 | 0.10 | 0.28 | 0.28 | 97 | 1011.2 |
| 20260508213501 | 12 | 245 | 19.3 | 29.0 | 0.10 | 0.25 | 0.25 | 97 | 1011.2 |
| 20260508213002 | 12 | 247 | 16.1 | 20.9 | 0.18 | 0.25 | 0.25 | 97 | 1011.2 |
| 20260508212502 | 12 | 245 | 17.7 | 25.7 | 0.18 | 0.23 | 0.23 | 96 | 1011.1 |
| 20260508212001 | 12 | 244 | 14.5 | 27.4 | 0.10 | 0.23 | 0.23 | 96 | 1011.2 |
| 20260508211502 | 13 | 246 | 11.3 | 25.7 | 0.05 | 0.20 | 0.20 | 95 | 1011.3 |
| 20260508211001 | 13 | 242 | 24.1 | 40.2 | 0.10 | 0.20 | 0.20 | 94 | 1011.4 |
| 20260508210502 | 13 | 238 | 24.1 | 30.6 | 0.05 | 0.18 | 0.18 | 94 | 1011.3 |
| 20260508210002 | 13 | 245 | 32.2 | 33.8 | 0.00 | 0.18 | 0.18 | 93 | 1011.3 |
| 20260508205502 | 13 | 245 | 19.3 | 29.0 | 0.05 | 0.18 | 0.18 | 94 | 1011.2 |
| 20260508205002 | 13 | 237 | 20.9 | 30.6 | 0.05 | 0.18 | 0.18 | 93 | 1011.1 |
| 20260508204502 | 13 | 242 | 19.3 | 38.6 | 0.00 | 0.18 | 0.18 | 92 | 1011.1 |
| 20260508204001 | 13 | 249 | 16.1 | 35.4 | 0.05 | 0.18 | 0.18 | 90 | 1011.2 |
| 20260508203502 | 13 | 222 | 12.9 | 25.7 | 0.10 | 0.18 | 0.18 | 93 | 1011.3 |
| 20260508203001 | 13 | 204 | 14.5 | 24.1 | 0.10 | 0.15 | 0.15 | 91 | 1011.2 |
| 20260508202502 | 13 | 213 | 20.9 | 27.4 | 0.05 | 0.15 | 0.15 | 90 | 1011.3 |
| 20260508202001 | 13 | 206 | 12.9 | 29.0 | 0.00 | 0.13 | 0.13 | 88 | 1011.4 |
| 20260508201502 | 13 | 216 | 16.1 | 25.7 | 0.00 | 0.13 | 0.13 | 87 | 1011.1 |
| 20260508201002 | 13 | 207 | 19.3 | 24.1 | 0.00 | 0.13 | 0.13 | 85 | 1011.3 |
| 20260508200502 | 14 | 191 | 4.8 | 14.5 | 0.00 | 0.13 | 0.13 | 85 | 1011.5 |
| 20260508200002 | 14 | 152 | 12.9 | 12.9 | 0.00 | 0.13 | 0.13 | 85 | 1011.4 |
| 20260508195502 | 14 | 146 | 6.4 | 9.7 | 0.00 | 0.13 | 0.13 | 83 | 1011.3 |
| 20260508195001 | 14 | 143 | 3.2 | 8.0 | 0.05 | 0.13 | 0.13 | 83 | 1011.4 |
| 20260508194502 | 14 | 148 | 3.2 | 8.0 | 0.05 | 0.13 | 0.13 | 83 | 1011.5 |
| 20260508194001 | 14 | 12 | 4.8 | 6.4 | 0.00 | 0.13 | 0.13 | 84 | 1011.4 |
| 20260508193502 | 13 | 17 | 6.4 | 8.0 | 0.00 | 0.13 | 0.13 | 83 | 1011.5 |
| 20260508193002 | 14 | 35 | 4.8 | 8.0 | 0.00 | 0.13 | 0.13 | 81 | 1011.3 |
| 20260508192501 | 14 | 46 | 6.4 | 11.3 | 0.00 | 0.13 | 0.13 | 83 | 1011.4 |
| 20260508192002 | 14 | 62 | 3.2 | 4.8 | 0.00 | 0.13 | 0.13 | 79 | 1011.4 |
| 20260508191501 | 14 | 74 | 6.4 | 6.4 | 0.00 | 0.13 | 0.13 | 81 | 1011.5 |
| 20260508191002 | 14 | 68 | 3.2 | 6.4 | 0.00 | 0.13 | 0.13 | 81 | 1011.5 |
| 20260508190501 | 14 | 13 | 4.8 | 4.8 | 0.00 | 0.13 | 0.13 | 82 | 1011.8 |
| 20260508190002 | 13 | 35 | 3.2 | 9.7 | 0.00 | 0.13 | 0.13 | 83 | 1011.8 |
| 20260508185502 | 14 | 53 | 4.8 | 8.0 | 0.00 | 0.13 | 0.13 | 83 | 1011.9 |
| 20260508185002 | 14 | 39 | 4.8 | 8.0 | 0.00 | 0.13 | 0.13 | 82 | 1012.1 |
| 20260508184502 | 14 | 54 | 4.8 | 9.7 | 0.00 | 0.13 | 0.13 | 82 | 1012.0 |
| 20260508184001 | 14 | 28 | 6.4 | 8.0 | 0.00 | 0.13 | 0.13 | 84 | 1012.1 |
| 20260508183502 | 13 | 29 | 0.0 | 3.2 | 0.00 | 0.13 | 0.13 | 80 | 1012.2 |
| 20260508183002 | 13 | 25 | 3.2 | 4.8 | 0.00 | 0.13 | 0.13 | 81 | 1012.5 |
| 20260508182502 | 13 | 13 | 3.2 | 3.2 | 0.00 | 0.13 | 0.13 | 83 | 1012.3 |
| 20260508182002 | 13 | 4 | 0.0 | 3.2 | 0.00 | 0.13 | 0.13 | 83 | 1012.4 |
| 20260508181501 | 13 | 246 | 0.0 | 4.8 | 0.00 | 0.13 | 0.13 | 83 | 1012.3 |
| 20260508181002 | 13 | 252 | 3.2 | 4.8 | 0.00 | 0.13 | 0.13 | 81 | 1012.3 |
| 20260508180501 | 13 | 157 | 0.0 | 4.8 | 0.00 | 0.13 | 0.13 | 79 | 1012.5 |
| 20260508180002 | 13 | 203 | 3.2 | 8.0 | 0.00 | 0.13 | 0.13 | 81 | 1012.6 |
| 20260508175501 | 13 | 222 | 6.4 | 8.0 | 0.00 | 0.13 | 0.13 | 81 | 1012.7 |
| 20260508175002 | 13 | 243 | 6.4 | 11.3 | 0.00 | 0.13 | 0.13 | 80 | 1013.1 |
| 20260508174502 | 13 | 209 | 4.8 | 8.0 | 0.00 | 0.13 | 0.13 | 83 | 1012.9 |
| 20260508174001 | 13 | 210 | 6.4 | 9.7 | 0.00 | 0.13 | 0.13 | 82 | 1013.2 |
| 20260508173501 | 13 | 242 | 9.7 | 12.9 | 0.00 | 0.13 | 0.13 | 81 | 1013.4 |
| 20260508173002 | 13 | 228 | 8.0 | 11.3 | 0.00 | 0.13 | 0.13 | 83 | 1013.5 |
| 20260508172502 | 12 | 229 | 12.9 | 16.1 | 0.00 | 0.13 | 0.13 | 84 | 1013.4 |
| 20260508172001 | 12 | 240 | 17.7 | 17.7 | 0.00 | 0.13 | 0.13 | 84 | 1013.5 |
| 20260508171502 | 12 | 245 | 14.5 | 17.7 | 0.00 | 0.13 | 0.13 | 83 | 1013.6 |
| 20260508171002 | 13 | 240 | 11.3 | 19.3 | 0.00 | 0.13 | 0.13 | 81 | 1013.4 |
| 20260508170502 | 13 | 209 | 14.5 | 19.3 | 0.00 | 0.13 | 0.13 | 80 | 1013.3 |
| 20260508170002 | 13 | 210 | 17.7 | 19.3 | 0.00 | 0.13 | 0.13 | 79 | 1013.1 |
| 20260508165502 | 13 | 208 | 17.7 | 17.7 | 0.00 | 0.13 | 0.13 | 82 | 1013.1 |
| 20260508165002 | 13 | 214 | 17.7 | 20.9 | 0.00 | 0.13 | 0.13 | 82 | 1013.3 |
| 20260508164502 | 13 | 212 | 12.9 | 24.1 | 0.00 | 0.13 | 0.13 | 82 | 1013.4 |
| 20260508164001 | 13 | 216 | 11.3 | 24.1 | 0.00 | 0.13 | 0.13 | 84 | 1013.6 |
| 20260508163502 | 12 | 212 | 14.5 | 19.3 | 0.00 | 0.13 | 0.13 | 84 | 1013.8 |
| 20260508163002 | 12 | 209 | 14.5 | 17.7 | 0.00 | 0.13 | 0.13 | 87 | 1013.9 |
| 20260508162501 | 12 | 209 | 14.5 | 17.7 | 0.00 | 0.13 | 0.13 | 87 | 1014.1 |
| 20260508162002 | 11 | 215 | 17.7 | 19.3 | 0.00 | 0.13 | 0.13 | 88 | 1014.1 |
| 20260508161502 | 10 | 211 | 11.3 | 16.1 | 0.00 | 0.13 | 0.13 | 91 | 1014.3 |
| 20260508161002 | 10 | 228 | 17.7 | 17.7 | 0.00 | 0.13 | 0.13 | 92 | 1014.3 |
| 20260508160501 | 10 | 218 | 9.7 | 16.1 | 0.00 | 0.13 | 0.13 | 93 | 1014.3 |
| 20260508160002 | 10 | 227 | 14.5 | 20.9 | 0.00 | 0.13 | 0.13 | 94 | 1014.5 |
| 20260508155502 | 10 | 227 | 11.3 | 17.7 | 0.00 | 0.13 | 0.13 | 95 | 1014.5 |
| 20260508155002 | 10 | 220 | 9.7 | 14.5 | 0.05 | 0.13 | 0.13 | 96 | 1014.6 |
| 20260508154501 | 9 | 230 | 8.0 | 16.1 | 0.18 | 0.13 | 0.13 | 96 | 1014.6 |
| 20260508154002 | 9 | 223 | 12.9 | 16.1 | 0.28 | 0.13 | 0.13 | 96 | 1014.5 |
| 20260508153501 | 9 | 241 | 12.9 | 17.7 | 0.23 | 0.10 | 0.10 | 95 | 1014.6 |
| 20260508153001 | 9 | 248 | 14.5 | 24.1 | 0.10 | 0.08 | 0.08 | 95 | 1014.7 |
| 20260508152502 | 10 | 248 | 22.5 | 25.7 | 0.10 | 0.05 | 0.05 | 95 | 1014.7 |
| 20260508152001 | 10 | 239 | 17.7 | 32.2 | 0.10 | 0.05 | 0.05 | 95 | 1014.8 |
| 20260508151502 | 10 | 245 | 17.7 | 30.6 | 0.05 | 0.05 | 0.05 | 94 | 1014.8 |
| 20260508151002 | 10 | 247 | 20.9 | 35.4 | 0.05 | 0.03 | 0.03 | 94 | 1014.7 |
| 20260508150502 | 10 | 233 | 16.1 | 30.6 | 0.05 | 0.03 | 0.03 | 95 | 1014.7 |
| 20260508150003 | 10 | 245 | 16.1 | 27.4 | 0.18 | 0.03 | 0.03 | 94 | 1014.8 |
| 20260508145501 | 10 | 242 | 24.1 | 30.6 | 0.10 | 0.00 | 0.00 | 92 | 1014.7 |
| 20260508145002 | 10 | 249 | 19.3 | 30.6 | 0.00 | 0.00 | 0.00 | 90 | 1014.7 |
| 20260508144502 | 10 | 240 | 14.5 | 27.4 | 0.00 | 0.00 | 0.00 | 89 | 1014.7 |
| 20260508144002 | 10 | 222 | 24.1 | 24.1 | 0.00 | 0.00 | 0.00 | 90 | 1014.4 |
| 20260508143002 | 10 | 234 | 9.7 | 17.7 | 0.00 | 0.00 | 0.00 | 88 | 1014.4 |
| 20260508142501 | 10 | 242 | 12.9 | 19.3 | 0.00 | 0.00 | 0.00 | 88 | 1014.4 |
| 20260508142001 | 10 | 250 | 14.5 | 20.9 | 0.00 | 0.00 | 0.00 | 86 | 1014.4 |
| 20260508141502 | 10 | 249 | 17.7 | 19.3 | 0.00 | 0.00 | 0.00 | 86 | 1014.3 |
| 20260508141002 | 10 | 251 | 12.9 | 17.7 | 0.00 | 0.00 | 0.00 | 86 | 1014.6 |
| 20260508140501 | 11 | 249 | 12.9 | 19.3 | 0.00 | 0.00 | 0.00 | 85 | 1014.4 |
| 20260508140002 | 11 | 244 | 16.1 | 17.7 | 0.00 | 0.00 | 0.00 | 84 | 1014.4 |
| 20260508135501 | 11 | 240 | 9.7 | 17.7 | 0.00 | 0.00 | 0.00 | 84 | 1014.3 |
| 20260508135002 | 11 | 236 | 8.0 | 16.1 | 0.00 | 0.00 | 0.00 | 85 | 1014.3 |
| 20260508134502 | 11 | 241 | 17.7 | 17.7 | 0.00 | 0.00 | 0.00 | 84 | 1014.3 |
| 20260508134002 | 11 | 243 | 20.9 | 20.9 | 0.00 | 0.00 | 0.00 | 83 | 1014.6 |
| 20260508133502 | 11 | 250 | 20.9 | 22.5 | 0.00 | 0.00 | 0.00 | 83 | 1014.3 |
| 20260508133001 | 11 | 247 | 16.1 | 19.3 | 0.00 | 0.00 | 0.00 | 83 | 1014.4 |
| 20260508132501 | 11 | 229 | 19.3 | 22.5 | 0.00 | 0.00 | 0.00 | 82 | 1014.5 |
| 20260508132002 | 11 | 239 | 11.3 | 22.5 | 0.00 | 0.00 | 0.00 | 83 | 1014.2 |
| 20260508131502 | 10 | 234 | 16.1 | 20.9 | 0.00 | 0.00 | 0.00 | 83 | 1014.5 |
| 20260508131002 | 10 | 238 | 12.9 | 20.9 | 0.00 | 0.00 | 0.00 | 83 | 1014.4 |
| 20260508130501 | 10 | 228 | 11.3 | 20.9 | 0.00 | 0.00 | 0.00 | 85 | 1014.5 |
| 20260508130002 | 10 | 212 | 11.3 | 24.1 | 0.00 | 0.00 | 0.00 | 84 | 1014.6 |
| 20260508125501 | 10 | 217 | 14.5 | 19.3 | 0.00 | 0.00 | 0.00 | 85 | 1014.5 |
| 20260508125002 | 10 | 237 | 14.5 | 17.7 | 0.00 | 0.00 | 0.00 | 85 | 1014.3 |
| 20260508124502 | 10 | 222 | 11.3 | 19.3 | 0.00 | 0.00 | 0.00 | 86 | 1014.4 |
| 20260508124001 | 10 | 223 | 16.1 | 24.1 | 0.00 | 0.00 | 0.00 | 84 | 1014.1 |
| 20260508123502 | 10 | 237 | 16.1 | 22.5 | 0.00 | 0.00 | 0.00 | 84 | 1014.3 |
| 20260508123002 | 10 | 226 | 17.7 | 19.3 | 0.00 | 0.00 | 0.00 | 83 | 1014.2 |
| 20260508122502 | 10 | 230 | 14.5 | 20.9 | 0.00 | 0.00 | 0.00 | 83 | 1014.2 |
| 20260508122001 | 10 | 240 | 12.9 | 22.5 | 0.00 | 0.00 | 0.00 | 84 | 1014.4 |
| 20260508121501 | 10 | 236 | 24.1 | 24.1 | 0.00 | 0.00 | 0.00 | 83 | 1014.2 |
| 20260508121002 | 10 | 232 | 11.3 | 22.5 | 0.00 | 0.00 | 0.00 | 85 | 1014.3 |
| 20260508120502 | 10 | 235 | 14.5 | 20.9 | 0.00 | 0.00 | 0.00 | 85 | 1014.4 |
| 20260508120003 | 10 | 228 | 11.3 | 25.7 | 0.00 | 0.00 | 0.00 | 85 | 1014.2 |
| 20260508115501 | 9 | 237 | 14.5 | 24.1 | 0.00 | 0.00 | 0.00 | 86 | 1014.1 |
| 20260508115002 | 9 | 239 | 19.3 | 22.5 | 0.00 | 0.00 | 0.00 | 85 | 1014.2 |
| 20260508114501 | 9 | 248 | 8.0 | 20.9 | 0.00 | 0.00 | 0.00 | 86 | 1014.1 |
| 20260508114001 | 9 | 242 | 11.3 | 20.9 | 0.00 | 0.00 | 0.00 | 85 | 1013.9 |
| 20260508113502 | 9 | 229 | 16.1 | 24.1 | 0.00 | 0.00 | 0.00 | 85 | 1013.8 |
| 20260508113001 | 8 | 238 | 16.1 | 24.1 | 0.00 | 0.00 | 0.00 | 85 | 1013.9 |
| 20260508112501 | 8 | 247 | 14.5 | 19.3 | 0.00 | 0.00 | 0.00 | 86 | 1013.8 |
| 20260508112002 | 8 | 245 | 17.7 | 24.1 | 0.00 | 0.00 | 0.00 | 85 | 1014.1 |
| 20260508111502 | 8 | 237 | 12.9 | 17.7 | 0.00 | 0.00 | 0.00 | 87 | 1013.7 |
| 20260508111002 | 8 | 234 | 9.7 | 17.7 | 0.00 | 0.00 | 0.00 | 88 | 1013.8 |
| 20260508110502 | 8 | 233 | 14.5 | 19.3 | 0.00 | 0.00 | 0.00 | 88 | 1013.6 |
| 20260508110003 | 8 | 228 | 11.3 | 17.7 | 0.00 | 0.00 | 0.00 | 87 | 1013.6 |
| 20260508105501 | 8 | 227 | 17.7 | 24.1 | 0.00 | 0.00 | 0.00 | 86 | 1013.5 |
| 20260508105002 | 8 | 231 | 17.7 | 24.1 | 0.00 | 0.00 | 0.00 | 86 | 1013.6 |
| 20260508104502 | 8 | 232 | 19.3 | 22.5 | 0.00 | 0.00 | 0.00 | 85 | 1013.5 |
| 20260508104001 | 7 | 246 | 16.1 | 22.5 | 0.00 | 0.00 | 0.00 | 87 | 1013.6 |
| 20260508103502 | 7 | 217 | 9.7 | 19.3 | 0.00 | 0.00 | 0.00 | 88 | 1013.7 |
| 20260508103002 | 7 | 230 | 14.5 | 20.9 | 0.00 | 0.00 | 0.00 | 88 | 1013.5 |
| 20260508102502 | 7 | 220 | 11.3 | 17.7 | 0.00 | 0.00 | 0.00 | 88 | 1013.4 |
| 20260508102001 | 7 | 237 | 11.3 | 16.1 | 0.00 | 0.00 | 0.00 | 87 | 1013.4 |
| 20260508101502 | 7 | 229 | 16.1 | 20.9 | 0.00 | 0.00 | 0.00 | 87 | 1013.5 |
| 20260508101002 | 7 | 244 | 11.3 | 19.3 | 0.00 | 0.00 | 0.00 | 86 | 1013.4 |
| 20260508100502 | 7 | 246 | 12.9 | 17.7 | 0.00 | 0.00 | 0.00 | 87 | 1013.4 |
| 20260508100002 | 7 | 235 | 11.3 | 20.9 | 0.00 | 0.00 | 0.00 | 86 | 1013.5 |
| 20260508095002 | 7 | 244 | 11.3 | 22.5 | 0.00 | 0.00 | 0.00 | 85 | 1013.5 |
| 20260508094502 | 7 | 244 | 14.5 | 20.9 | 0.00 | 0.00 | 0.00 | 85 | 1013.6 |
| 20260508094001 | 8 | 241 | 14.5 | 24.1 | 0.00 | 0.00 | 0.00 | 85 | 1013.8 |
| 20260508093502 | 8 | 235 | 20.9 | 27.4 | 0.00 | 0.00 | 0.00 | 85 | 1013.4 |
| 20260508093002 | 8 | 234 | 17.7 | 25.7 | 0.00 | 0.00 | 0.00 | 85 | 1013.5 |
| 20260508092501 | 7 | 223 | 16.1 | 17.7 | 0.00 | 0.00 | 0.00 | 86 | 1013.8 |
| 20260508092003 | 7 | 233 | 17.7 | 20.9 | 0.00 | 0.00 | 0.00 | 86 | 1013.6 |
| 20260508091502 | 7 | 217 | 12.9 | 24.1 | 0.00 | 0.00 | 0.00 | 86 | 1013.7 |
| 20260508091002 | 7 | 232 | 11.3 | 20.9 | 0.00 | 0.00 | 0.00 | 86 | 1013.9 |
| 20260508090501 | 7 | 243 | 11.3 | 20.9 | 0.00 | 0.00 | 0.00 | 86 | 1013.8 |
| 20260508090002 | 7 | 232 | 16.1 | 24.1 | 0.00 | 0.00 | 0.00 | 87 | 1013.7 |
| 20260508085501 | 7 | 229 | 12.9 | 20.9 | 0.00 | 0.00 | 0.00 | 86 | 1013.4 |
| 20260508085001 | 7 | 220 | 17.7 | 24.1 | 0.00 | 0.00 | 0.00 | 87 | 1013.7 |
| 20260508084502 | 7 | 235 | 19.3 | 22.5 | 0.00 | 0.00 | 0.00 | 87 | 1013.7 |
| 20260508084002 | 7 | 235 | 12.9 | 16.1 | 0.00 | 0.00 | 0.00 | 89 | 1013.7 |
| 20260508083501 | 6 | 234 | 8.0 | 14.5 | 0.00 | 0.00 | 0.00 | 89 | 1013.6 |
| 20260508083001 | 6 | 222 | 11.3 | 14.5 | 0.00 | 0.00 | 0.00 | 90 | 1013.6 |
| 20260508082502 | 7 | 223 | 14.5 | 16.1 | 0.00 | 0.00 | 0.00 | 88 | 1013.5 |
| 20260508082001 | 7 | 212 | 12.9 | 19.3 | 0.00 | 0.00 | 0.00 | 88 | 1013.6 |
| 20260508081502 | 7 | 220 | 17.7 | 19.3 | 0.00 | 0.00 | 0.00 | 88 | 1013.4 |
| 20260508081003 | 7 | 221 | 17.7 | 17.7 | 0.00 | 0.00 | 0.00 | 87 | 1013.8 |
| 20260508080501 | 7 | 213 | 11.3 | 19.3 | 0.00 | 0.00 | 0.00 | 89 | 1013.6 |
| 20260508080002 | 7 | 218 | 9.7 | 14.5 | 0.00 | 0.00 | 0.00 | 89 | 1013.6 |
| 20260508075501 | 7 | 220 | 9.7 | 12.9 | 0.00 | 0.00 | 0.00 | 88 | 1013.5 |
| 20260508075002 | 7 | 208 | 9.7 | 16.1 | 0.00 | 0.00 | 0.00 | 87 | 1013.7 |
| 20260508074501 | 8 | 206 | 9.7 | 14.5 | 0.00 | 0.00 | 0.00 | 87 | 1013.6 |
| 20260508074002 | 8 | 203 | 14.5 | 17.7 | 0.00 | 0.00 | 0.00 | 87 | 1013.7 |
| 20260508073502 | 8 | 209 | 12.9 | 19.3 | 0.00 | 0.00 | 0.00 | 87 | 1013.8 |
| 20260508073001 | 8 | 208 | 12.9 | 17.7 | 0.00 | 0.00 | 0.00 | 88 | 1013.9 |
| 20260508072502 | 8 | 210 | 8.0 | 16.1 | 0.00 | 0.00 | 0.00 | 88 | 1013.9 |
| 20260508072001 | 8 | 208 | 9.7 | 16.1 | 0.00 | 0.00 | 0.00 | 88 | 1013.8 |
| 20260508071502 | 7 | 166 | 4.8 | 16.1 | 0.00 | 0.00 | 0.00 | 90 | 1014.1 |
| 20260508071002 | 7 | 167 | 4.8 | 8.0 | 0.00 | 0.00 | 0.00 | 95 | 1013.9 |
| 20260508070502 | 6 | 147 | 8.0 | 12.9 | 0.00 | 0.00 | 0.00 | 97 | 1014.1 |
| 20260508070002 | 6 | 173 | 4.8 | 9.7 | 0.00 | 0.00 | 0.00 | 97 | 1014.0 |
| 20260508065502 | 6 | 143 | 4.8 | 9.7 | 0.00 | 0.00 | 0.00 | 97 | 1014.1 |
| 20260508065001 | 6 | 145 | 6.4 | 9.7 | 0.00 | 0.00 | 0.00 | 96 | 1013.9 |
| 20260508064501 | 6 | 145 | 8.0 | 9.7 | 0.00 | 0.00 | 0.00 | 96 | 1014.1 |
| 20260508064002 | 6 | 145 | 8.0 | 11.3 | 0.00 | 0.00 | 0.00 | 96 | 1014.3 |
| 20260508063502 | 6 | 148 | 9.7 | 11.3 | 0.00 | 0.00 | 0.00 | 96 | 1014.4 |
| 20260508063002 | 6 | 146 | 8.0 | 9.7 | 0.00 | 0.00 | 0.00 | 95 | 1014.3 |
| 20260508062501 | 6 | 147 | 9.7 | 9.7 | 0.00 | 0.00 | 0.00 | 95 | 1014.4 |
| 20260508062002 | 6 | 141 | 6.4 | 8.0 | 0.00 | 0.00 | 0.00 | 95 | 1014.4 |
| 20260508061501 | 7 | 144 | 8.0 | 9.7 | 0.00 | 0.00 | 0.00 | 94 | 1014.5 |
| 20260508061002 | 7 | 147 | 9.7 | 9.7 | 0.00 | 0.00 | 0.00 | 94 | 1014.5 |
| 20260508060502 | 7 | 145 | 8.0 | 9.7 | 0.00 | 0.00 | 0.00 | 94 | 1014.5 |
| 20260508060002 | 7 | 144 | 8.0 | 8.0 | 0.00 | 0.00 | 0.00 | 94 | 1014.6 |
| 20260508055501 | 7 | 145 | 8.0 | 11.3 | 0.00 | 0.00 | 0.00 | 94 | 1014.6 |
| 20260508055002 | 7 | 143 | 6.4 | 8.0 | 0.00 | 0.00 | 0.00 | 93 | 1014.7 |
| 20260508054502 | 7 | 146 | 9.7 | 9.7 | 0.00 | 0.00 | 0.00 | 93 | 1014.8 |
| 20260508054002 | 7 | 147 | 8.0 | 11.3 | 0.00 | 0.00 | 0.00 | 94 | 1014.5 |
| 20260508053501 | 7 | 146 | 8.0 | 12.9 | 0.00 | 0.00 | 0.00 | 95 | 1014.6 |
| 20260508053003 | 7 | 145 | 9.7 | 9.7 | 0.00 | 0.00 | 0.00 | 95 | 1014.8 |
| 20260508052502 | 7 | 153 | 6.4 | 9.7 | 0.00 | 0.00 | 0.00 | 95 | 1014.7 |
| 20260508052002 | 7 | 149 | 6.4 | 9.7 | 0.00 | 0.00 | 0.00 | 94 | 1014.8 |
| 20260508051502 | 7 | 143 | 6.4 | 8.0 | 0.00 | 0.00 | 0.00 | 93 | 1014.8 |
| 20260508051002 | 8 | 138 | 4.8 | 8.0 | 0.00 | 0.00 | 0.00 | 90 | 1014.8 |
| 20260508050501 | 8 | 156 | 4.8 | 9.7 | 0.00 | 0.00 | 0.00 | 88 | 1014.7 |
| 20260508050004 | 8 | 200 | 4.8 | 6.4 | 0.00 | 0.00 | 0.00 | 88 | 1014.9 |
| 20260508045501 | 8 | 196 | 3.2 | 9.7 | 0.00 | 0.00 | 0.00 | 89 | 1014.7 |
| 20260508045002 | 8 | 205 | 6.4 | 9.7 | 0.00 | 0.00 | 0.00 | 89 | 1014.7 |
| 20260508044502 | 8 | 204 | 9.7 | 11.3 | 0.00 | 0.00 | 0.00 | 90 | 1014.8 |
| 20260508044002 | 8 | 199 | 4.8 | 9.7 | 0.00 | 0.00 | 0.00 | 92 | 1014.9 |
| 20260508043501 | 8 | 149 | 6.4 | 8.0 | 0.00 | 0.00 | 0.00 | 92 | 1014.8 |
| 20260508043001 | 8 | 138 | 3.2 | 3.2 | 0.00 | 0.00 | 0.00 | 91 | 1015.1 |
| 20260508042502 | 8 | 44 | 0.0 | 4.8 | 0.00 | 0.00 | 0.00 | 89 | 1014.9 |
| 20260508042002 | 8 | 284 | 0.0 | 3.2 | 0.00 | 0.00 | 0.00 | 90 | 1014.9 |
| 20260508041502 | 8 | 2 | 3.2 | 8.0 | 0.00 | 0.00 | 0.00 | 90 | 1015.0 |
| 20260508041002 | 8 | 260 | 4.8 | 9.7 | 0.00 | 0.00 | 0.00 | 89 | 1015.0 |
| 20260508040502 | 8 | 264 | 6.4 | 11.3 | 0.00 | 0.00 | 0.00 | 88 | 1014.7 |
| 20260508040003 | 9 | 241 | 9.7 | 14.5 | 0.00 | 0.05 | 0.05 | 88 | 1015.0 |
| 20260508035501 | 9 | 266 | 17.7 | 17.7 | 0.00 | 0.05 | 0.05 | 87 | 1015.2 |
| 20260508035002 | 8 | 274 | 12.9 | 16.1 | 0.00 | 0.05 | 0.05 | 87 | 1015.3 |
| 20260508034501 | 9 | 265 | 16.1 | 25.7 | 0.00 | 0.05 | 0.05 | 86 | 1015.3 |
| 20260508034002 | 9 | 253 | 27.4 | 40.2 | 0.10 | 0.05 | 0.05 | 84 | 1015.3 |
| 20260508033502 | 9 | 255 | 12.9 | 22.5 | 0.23 | 0.05 | 0.05 | 87 | 1015.3 |
| 20260508033002 | 8 | 272 | 6.4 | 17.7 | 0.10 | 0.03 | 0.03 | 88 | 1015.2 |
| 20260508032502 | 9 | 254 | 4.8 | 8.0 | 0.00 | 0.00 | 0.00 | 87 | 1014.7 |
| 20260508032002 | 10 | 208 | 8.0 | 14.5 | 0.00 | 0.00 | 0.00 | 81 | 1014.5 |
| 20260508031502 | 9 | 204 | 11.3 | 14.5 | 0.10 | 0.00 | 0.00 | 81 | 1014.4 |
| 20260508031002 | 9 | 189 | 6.4 | 20.9 | 0.10 | 0.00 | 0.00 | 81 | 1014.5 |
| 20260508030501 | 10 | 205 | 14.5 | 19.3 | 0.00 | 0.00 | 0.00 | 80 | 1014.5 |
| 20260508030002 | 10 | 207 | 11.3 | 20.9 | 0.00 | 0.00 | 0.00 | 78 | 1014.5 |
| 20260508025502 | 10 | 208 | 6.4 | 9.7 | 0.00 | 0.00 | 0.00 | 78 | 1014.3 |
| 20260508025001 | 10 | 147 | 3.2 | 9.7 | 0.00 | 0.00 | 0.00 | 78 | 1014.3 |
| 20260508024502 | 10 | 151 | 4.8 | 9.7 | 0.00 | 0.00 | 0.00 | 78 | 1014.4 |
| 20260508024002 | 10 | 163 | 3.2 | 11.3 | 0.00 | 0.00 | 0.00 | 78 | 1014.5 |
| 20260508023502 | 10 | 180 | 9.7 | 16.1 | 0.00 | 0.00 | 0.00 | 77 | 1014.6 |
| 20260508023001 | 10 | 180 | 6.4 | 12.9 | 0.00 | 0.00 | 0.00 | 77 | 1014.4 |
| 20260508022502 | 10 | 200 | 9.7 | 16.1 | 0.00 | 0.00 | 0.00 | 74 | 1014.5 |
| 20260508022003 | 10 | 164 | 4.8 | 17.7 | 0.00 | 0.00 | 0.00 | 74 | 1014.4 |
| 20260508021502 | 10 | 161 | 3.2 | 20.9 | 0.00 | 0.00 | 0.00 | 74 | 1014.6 |
| 20260508021002 | 10 | 180 | 3.2 | 14.5 | 0.00 | 0.00 | 0.00 | 75 | 1014.5 |
| 20260508020501 | 10 | 158 | 3.2 | 11.3 | 0.00 | 0.00 | 0.00 | 76 | 1014.6 |
| 20260508020002 | 10 | 174 | 9.7 | 12.9 | 0.00 | 0.00 | 0.00 | 74 | 1014.5 |
| 20260508015502 | 10 | 200 | 6.4 | 9.7 | 0.00 | 0.00 | 0.00 | 73 | 1014.7 |
| 20260508015002 | 10 | 155 | 3.2 | 11.3 | 0.00 | 0.00 | 0.00 | 76 | 1014.6 |
| 20260508014502 | 10 | 156 | 6.4 | 9.7 | 0.00 | 0.00 | 0.00 | 75 | 1014.4 |
| 20260508014002 | 10 | 183 | 3.2 | 8.0 | 0.00 | 0.00 | 0.00 | 76 | 1014.6 |
| 20260508013502 | 9 | 149 | 6.4 | 6.4 | 0.00 | 0.00 | 0.00 | 79 | 1014.6 |
| 20260508013002 | 9 | 161 | 4.8 | 6.4 | 0.00 | 0.00 | 0.00 | 80 | 1014.5 |
| 20260508012502 | 10 | 142 | 6.4 | 8.0 | 0.00 | 0.00 | 0.00 | 79 | 1014.5 |
| 20260508012002 | 10 | 158 | 4.8 | 6.4 | 0.00 | 0.00 | 0.00 | 76 | 1014.5 |
| 20260508011502 | 10 | 149 | 4.8 | 9.7 | 0.00 | 0.00 | 0.00 | 78 | 1014.5 |
| 20260508011001 | 10 | 198 | 3.2 | 9.7 | 0.00 | 0.00 | 0.00 | 72 | 1014.5 |
| 20260508010502 | 10 | 202 | 4.8 | 9.7 | 0.00 | 0.00 | 0.00 | 72 | 1014.7 |
| 20260508010002 | 10 | 200 | 4.8 | 9.7 | 0.00 | 0.00 | 0.00 | 72 | 1014.5 |
| 20260508005502 | 10 | 201 | 8.0 | 9.7 | 0.00 | 0.00 | 0.00 | 75 | 1014.5 |
| 20260508005002 | 10 | 241 | 3.2 | 4.8 | 0.00 | 0.00 | 0.00 | 74 | 1014.5 |
| 20260508004502 | 10 | 201 | 4.8 | 8.0 | 0.00 | 0.00 | 0.00 | 70 | 1014.5 |
| 20260508004001 | 10 | 199 | 6.4 | 8.0 | 0.00 | 0.00 | 0.00 | 72 | 1014.6 |
| 20260508003502 | 10 | 197 | 3.2 | 4.8 | 0.00 | 0.00 | 0.00 | 73 | 1014.6 |
| 20260508003002 | 10 | 196 | 3.2 | 4.8 | 0.00 | 0.00 | 0.00 | 74 | 1014.5 |
| 20260508002502 | 10 | 236 | 6.4 | 8.0 | 0.00 | 0.00 | 0.00 | 73 | 1014.5 |
| 20260508002001 | 10 | 239 | 4.8 | 8.0 | 0.00 | 0.00 | 0.00 | 73 | 1014.5 |
| 20260508001501 | 11 | 256 | 4.8 | 8.0 | 0.00 | 0.00 | 0.00 | 71 | 1014.4 |
| 20260508001002 | 11 | 224 | 6.4 | 9.7 | 0.00 | 0.00 | 0.00 | 71 | 1014.5 |
| 20260508000502 | 10 | 209 | 4.8 | 6.4 | 0.00 | 0.00 | 0.00 | 71 | 1014.6 |
| 20260508000003 | 11 | 258 | 4.8 | 6.4 | 0.00 | 0.00 | 0.00 | 70 | 1014.4 |
| 20260507235502 | 11 | 259 | 4.8 | 8.0 | 0.00 | 0.00 | 0.00 | 68 | 1014.3 |
| 20260507235002 | 11 | 240 | 6.4 | 11.3 | 0.00 | 0.00 | 0.00 | 66 | 1014.4 |
| 20260507234502 | 11 | 266 | 9.7 | 12.9 | 0.00 | 0.00 | 0.00 | 62 | 1014.6 |
| 20260507234001 | 11 | 244 | 9.7 | 16.1 | 0.00 | 0.00 | 0.00 | 61 | 1014.5 |
| 20260507233502 | 11 | 268 | 8.0 | 17.7 | 0.00 | 0.00 | 0.00 | 61 | 1014.4 |
| 20260507233002 | 11 | 258 | 14.5 | 19.3 | 0.00 | 0.00 | 0.00 | 60 | 1014.6 |
| 20260507232502 | 11 | 272 | 14.5 | 17.7 | 0.00 | 0.00 | 0.00 | 64 | 1014.7 |
| 20260507232002 | 11 | 275 | 12.9 | 22.5 | 0.00 | 0.00 | 0.00 | 64 | 1014.9 |
| 20260507231501 | 11 | 261 | 20.9 | 27.4 | 0.00 | 0.00 | 0.00 | 63 | 1014.9 |
| 20260507231002 | 11 | 288 | 20.9 | 37.0 | 0.00 | 0.00 | 0.00 | 61 | 1015.1 |
| 20260507230502 | 11 | 277 | 19.3 | 35.4 | 0.00 | 0.00 | 0.00 | 60 | 1015.2 |
| 20260507230002 | 11 | 271 | 24.1 | 25.7 | 0.00 | 0.00 | 0.00 | 61 | 1015.2 |
| 20260507225502 | 11 | 275 | 17.7 | 27.4 | 0.00 | 0.00 | 0.00 | 60 | 1015.0 |
| 20260507225002 | 11 | 282 | 27.4 | 35.4 | 0.00 | 0.00 | 0.00 | 58 | 1015.1 |
| 20260507224502 | 12 | 260 | 25.7 | 38.6 | 0.00 | 0.00 | 0.00 | 58 | 1015.0 |
| 20260507224002 | 12 | 268 | 17.7 | 30.6 | 0.00 | 0.00 | 0.00 | 56 | 1015.1 |
| 20260507223502 | 12 | 281 | 19.3 | 35.4 | 0.00 | 0.00 | 0.00 | 57 | 1015.0 |
| 20260507223002 | 12 | 267 | 33.8 | 45.1 | 0.00 | 0.00 | 0.00 | 54 | 1015.0 |
| 20260507222501 | 12 | 280 | 14.5 | 32.2 | 0.00 | 0.00 | 0.00 | 55 | 1015.0 |
| 20260507222002 | 12 | 292 | 19.3 | 32.2 | 0.00 | 0.00 | 0.00 | 51 | 1015.0 |
| 20260507221501 | 12 | 312 | 9.7 | 19.3 | 0.00 | 0.00 | 0.00 | 51 | 1014.9 |
| 20260507221002 | 12 | 327 | 12.9 | 30.6 | 0.00 | 0.00 | 0.00 | 48 | 1014.9 |